createdAt,value
2019-04-07T00:00:59.009Z,34.90
2019-04-07T00:01:59.472Z,39.00
2019-04-07T00:02:58.998Z,39.70
2019-04-07T00:03:58.985Z,37.70
2019-04-07T00:05:10.336Z,34.50
2019-04-07T00:05:58.972Z,39.20
2019-04-07T00:06:58.959Z,37.40
2019-04-07T00:07:59.169Z,38.50
2019-04-07T00:08:59.247Z,36.60
2019-04-07T00:09:58.937Z,37.00
2019-04-07T00:10:58.969Z,38.40
2019-04-07T00:11:59.126Z,38.00
2019-04-07T00:12:59.536Z,33.40
2019-04-07T00:13:58.954Z,37.20
2019-04-07T00:14:58.896Z,35.60
2019-04-07T00:15:59.019Z,37.30
2019-04-07T00:16:59.521Z,41.50
2019-04-07T00:17:59.222Z,37.70
2019-04-07T00:18:58.866Z,41.40
2019-04-07T00:19:58.860Z,39.90
2019-04-07T00:20:58.846Z,40.30
2019-04-07T00:21:59.320Z,39.40
2019-04-07T00:22:58.836Z,40.40
2019-04-07T00:23:58.826Z,39.40
2019-04-07T00:24:59.512Z,35.50
2019-04-07T00:25:58.922Z,39.70
2019-04-07T00:26:58.806Z,38.40
2019-04-07T00:27:58.796Z,37.80
2019-04-07T00:28:58.789Z,37.20
2019-04-07T00:29:59.922Z,42.20
2019-04-07T00:30:58.774Z,36.80
2019-04-07T00:31:58.766Z,40.90
2019-04-07T00:32:58.757Z,37.80
2019-04-07T00:33:59.305Z,39.90
2019-04-07T00:34:58.766Z,38.40
2019-04-07T00:35:59.258Z,38.20
2019-04-07T00:36:58.828Z,42.20
2019-04-07T00:37:58.721Z,40.60
2019-04-07T00:38:59.385Z,42.10
2019-04-07T00:39:58.931Z,38.40
2019-04-07T00:40:59.223Z,42.20
2019-04-07T00:41:59.172Z,43.90
2019-04-07T00:42:58.673Z,41.20
2019-04-07T00:43:59.433Z,43.10
2019-04-07T00:44:58.719Z,41.70
2019-04-07T00:45:58.649Z,38.80
2019-04-07T00:46:58.674Z,46.70
2019-04-07T00:47:59.317Z,36.40
2019-04-07T00:48:59.396Z,37.60
2019-04-07T00:49:58.764Z,40.40
2019-04-07T00:50:59.210Z,38.70
2019-04-07T00:51:58.603Z,36.00
2019-04-07T00:52:59.072Z,39.30
2019-04-07T00:53:58.589Z,38.50
2019-04-07T00:54:58.841Z,37.30
2019-04-07T00:55:58.567Z,38.20
2019-04-07T00:56:59.339Z,38.70
2019-04-07T00:57:58.546Z,42.10
2019-04-07T00:58:58.855Z,41.10
2019-04-07T00:59:58.536Z,41.50
2019-04-07T01:00:58.883Z,42.20
2019-04-07T01:01:58.526Z,40.70
2019-04-07T01:02:58.518Z,43.60
2019-04-07T01:03:58.505Z,42.20
2019-04-07T01:04:58.496Z,39.50
2019-04-07T01:05:58.726Z,41.90
2019-04-07T01:06:59.083Z,40.00
2019-04-07T01:07:59.096Z,42.10
2019-04-07T01:08:59.104Z,45.00
2019-04-07T01:09:58.545Z,39.70
2019-04-07T01:10:58.610Z,37.70
2019-04-07T01:11:58.613Z,40.70
2019-04-07T01:12:58.963Z,39.80
2019-04-07T01:13:58.421Z,42.80
2019-04-07T01:14:58.745Z,41.40
2019-04-07T01:15:58.739Z,37.80
2019-04-07T01:16:58.397Z,46.50
2019-04-07T01:17:58.795Z,41.30
2019-04-07T01:18:58.377Z,40.30
2019-04-07T01:19:58.662Z,47.10
2019-04-07T01:20:58.388Z,44.40
2019-04-07T01:21:58.962Z,44.70
2019-04-07T01:22:58.348Z,46.00
2019-04-07T01:23:59.043Z,43.50
2019-04-07T01:24:58.517Z,47.90
2019-04-07T01:25:58.551Z,38.90
2019-04-07T01:26:58.869Z,41.90
2019-04-07T01:27:58.633Z,42.50
2019-04-07T01:28:58.296Z,41.80
2019-04-07T01:29:58.289Z,46.60
2019-04-07T01:30:59.032Z,40.20
2019-04-07T01:31:58.437Z,44.30
2019-04-07T01:32:58.264Z,46.90
2019-04-07T01:33:58.722Z,46.40
2019-04-07T01:34:58.247Z,47.40
2019-04-07T01:35:58.237Z,44.70
2019-04-07T01:36:58.392Z,41.90
2019-04-07T01:37:58.355Z,45.00
2019-04-07T01:38:58.715Z,43.30
2019-04-07T01:39:58.200Z,49.50
2019-04-07T01:40:58.195Z,50.90
2019-04-07T01:41:58.412Z,48.50
2019-04-07T01:42:58.832Z,52.80
2019-04-07T01:43:58.170Z,49.00
2019-04-07T01:44:58.427Z,46.30
2019-04-07T01:45:58.690Z,49.00
2019-04-07T01:46:58.175Z,47.60
2019-04-07T01:47:58.428Z,50.40
2019-04-07T01:48:58.606Z,53.00
2019-04-07T01:49:58.836Z,44.40
2019-04-07T01:50:58.204Z,44.40
2019-04-07T01:51:58.099Z,49.30
2019-04-07T01:52:58.094Z,45.00
2019-04-07T01:53:58.085Z,43.20
2019-04-07T01:55:00.165Z,44.30
2019-04-07T01:55:58.675Z,42.40
2019-04-07T01:56:58.137Z,44.40
2019-04-07T01:57:58.172Z,44.10
2019-04-07T01:58:58.306Z,49.30
2019-04-07T01:59:58.191Z,47.40
2019-04-07T02:00:58.735Z,45.80
2019-04-07T02:01:58.133Z,53.70
2019-04-07T02:02:58.008Z,50.80
2019-04-07T02:03:58.497Z,47.60
2019-04-07T02:04:58.104Z,50.00
2019-04-07T02:06:01.728Z,47.20
2019-04-07T02:06:57.983Z,49.00
2019-04-07T02:07:57.962Z,50.60
2019-04-07T02:08:58.338Z,53.40
2019-04-07T02:09:58.626Z,52.80
2019-04-07T02:10:58.268Z,54.10
2019-04-07T02:11:58.362Z,47.50
2019-04-07T02:12:57.953Z,52.50
2019-04-07T02:13:58.396Z,49.40
2019-04-07T02:14:57.905Z,55.00
2019-04-07T02:15:57.902Z,47.10
2019-04-07T02:16:57.928Z,51.30
2019-04-07T02:17:58.220Z,53.60
2019-04-07T02:18:58.526Z,57.00
2019-04-07T02:19:57.880Z,62.70
2019-04-07T02:20:57.862Z,57.00
2019-04-07T02:21:58.258Z,51.00
2019-04-07T02:22:57.836Z,56.80
2019-04-07T02:23:57.826Z,57.20
2019-04-07T02:24:57.825Z,51.80
2019-04-07T02:25:58.184Z,54.60
2019-04-07T02:26:57.796Z,53.40
2019-04-07T02:27:57.784Z,49.80
2019-04-07T02:28:58.409Z,48.00
2019-04-07T02:29:57.973Z,52.30
2019-04-07T02:30:58.788Z,48.90
2019-04-07T02:31:58.502Z,57.70
2019-04-07T02:32:58.299Z,65.60
2019-04-07T02:33:57.735Z,111.60
2019-04-07T02:34:57.726Z,105.60
2019-04-07T02:36:13.625Z,68.60
2019-04-07T02:36:58.254Z,81.90
2019-04-07T02:37:57.715Z,114.40
2019-04-07T02:38:58.169Z,83.60
2019-04-07T02:39:59.982Z,102.30
2019-04-07T02:40:57.758Z,102.70
2019-04-07T02:41:57.667Z,106.40
2019-04-07T02:42:59.224Z,95.70
2019-04-07T02:43:57.654Z,95.40
2019-04-07T02:44:57.640Z,90.30
2019-04-07T02:45:57.879Z,76.70
2019-04-07T02:46:59.223Z,69.50
2019-04-07T02:47:57.848Z,64.40
2019-04-07T02:48:59.227Z,57.70
2019-04-07T02:49:57.603Z,54.30
2019-04-07T02:50:57.597Z,55.30
2019-04-07T02:51:57.575Z,54.40
2019-04-07T02:52:57.566Z,53.80
2019-04-07T02:53:58.414Z,51.00
2019-04-07T02:54:57.555Z,52.60
2019-04-07T02:55:57.583Z,54.20
2019-04-07T02:56:57.535Z,50.90
2019-04-07T02:57:58.278Z,57.00
2019-04-07T02:58:58.123Z,52.90
2019-04-07T02:59:57.831Z,51.90
2019-04-07T03:00:57.785Z,51.50
2019-04-07T03:01:57.637Z,53.20
2019-04-07T03:02:58.074Z,47.40
2019-04-07T03:03:57.705Z,50.60
2019-04-07T03:04:57.464Z,49.60
2019-04-07T03:05:58.096Z,52.90
2019-04-07T03:06:58.460Z,51.10
2019-04-07T03:07:57.510Z,51.80
2019-04-07T03:08:57.426Z,48.60
2019-04-07T03:09:57.435Z,51.50
2019-04-07T03:10:57.446Z,55.30
2019-04-07T03:11:57.755Z,50.20
2019-04-07T03:12:57.566Z,50.20
2019-04-07T03:13:58.524Z,54.00
2019-04-07T03:14:57.558Z,61.00
2019-04-07T03:15:57.855Z,56.30
2019-04-07T03:16:57.853Z,48.70
2019-04-07T03:17:57.430Z,52.90
2019-04-07T03:18:57.986Z,60.00
2019-04-07T03:19:59.232Z,50.90
2019-04-07T03:20:57.317Z,53.40
2019-04-07T03:21:57.826Z,54.00
2019-04-07T03:22:57.303Z,58.30
2019-04-07T03:23:57.290Z,54.80
2019-04-07T03:24:58.127Z,54.50
2019-04-07T03:25:58.113Z,69.00
2019-04-07T03:26:57.266Z,67.00
2019-04-07T03:27:57.393Z,60.00
2019-04-07T03:28:57.975Z,61.70
2019-04-07T03:29:57.233Z,61.40
2019-04-07T03:30:59.028Z,66.10
2019-04-07T03:31:59.511Z,55.70
2019-04-07T03:32:57.963Z,55.20
2019-04-07T03:33:58.734Z,59.90
2019-04-07T03:34:58.192Z,64.30
2019-04-07T03:36:01.783Z,56.90
2019-04-07T03:37:25.816Z,56.00
2019-04-07T03:37:57.361Z,52.90
2019-04-07T03:38:57.872Z,63.90
2019-04-07T03:39:57.165Z,64.40
2019-04-07T03:40:57.133Z,58.20
2019-04-07T03:41:57.128Z,60.50
2019-04-07T03:42:57.387Z,58.90
2019-04-07T03:43:57.123Z,61.30
2019-04-07T03:44:57.096Z,57.70
2019-04-07T03:45:57.289Z,55.20
2019-04-07T03:46:57.222Z,61.70
2019-04-07T03:47:57.076Z,59.10
2019-04-07T03:48:57.939Z,65.30
2019-04-07T03:49:57.169Z,56.90
2019-04-07T03:50:57.076Z,63.50
2019-04-07T03:51:58.086Z,63.10
2019-04-07T03:52:58.780Z,73.50
2019-04-07T03:53:57.013Z,63.30
2019-04-07T03:54:57.202Z,65.40
2019-04-07T03:55:57.797Z,58.70
2019-04-07T03:56:56.988Z,60.40
2019-04-07T03:57:57.034Z,61.70
2019-04-07T03:58:57.871Z,64.50
2019-04-07T03:59:57.797Z,59.10
2019-04-07T04:00:56.960Z,66.20
2019-04-07T04:01:57.465Z,66.10
2019-04-07T04:02:56.932Z,64.60
2019-04-07T04:03:56.943Z,65.70
2019-04-07T04:04:57.674Z,65.50
2019-04-07T04:05:57.317Z,64.30
2019-04-07T04:06:56.956Z,69.20
2019-04-07T04:07:56.889Z,67.60
2019-04-07T04:08:56.878Z,63.70
2019-04-07T04:09:58.019Z,70.30
2019-04-07T04:10:57.863Z,66.70
2019-04-07T04:11:56.890Z,61.00
2019-04-07T04:12:56.847Z,71.40
2019-04-07T04:13:56.832Z,57.90
2019-04-07T04:14:56.961Z,63.40
2019-04-07T04:15:56.834Z,65.10
2019-04-07T04:16:57.795Z,73.90
2019-04-07T04:17:57.365Z,67.00
2019-04-07T04:18:56.909Z,60.20
2019-04-07T04:19:57.371Z,58.60
2019-04-07T04:20:57.252Z,63.60
2019-04-07T04:21:56.758Z,60.10
2019-04-07T04:22:57.186Z,60.40
2019-04-07T04:23:57.639Z,55.20
2019-04-07T04:24:57.631Z,64.00
2019-04-07T04:25:56.731Z,60.90
2019-04-07T04:26:57.108Z,58.00
2019-04-07T04:27:59.237Z,64.40
2019-04-07T04:28:56.691Z,57.70
2019-04-07T04:29:56.837Z,60.80
2019-04-07T04:30:56.774Z,65.30
2019-04-07T04:31:57.200Z,64.40
2019-04-07T04:32:56.717Z,76.50
2019-04-07T04:33:56.647Z,60.50
2019-04-07T04:34:57.462Z,60.30
2019-04-07T04:35:56.625Z,58.60
2019-04-07T04:36:56.616Z,60.40
2019-04-07T04:37:56.907Z,61.70
2019-04-07T04:38:56.608Z,60.60
2019-04-07T04:39:58.280Z,60.10
2019-04-07T04:40:56.945Z,59.30
2019-04-07T04:41:57.625Z,56.40
2019-04-07T04:42:56.947Z,56.90
2019-04-07T04:43:56.669Z,54.50
2019-04-07T04:44:56.584Z,62.70
2019-04-07T04:45:56.915Z,59.70
2019-04-07T04:46:56.528Z,59.20
2019-04-07T04:47:56.512Z,60.60
2019-04-07T04:48:56.789Z,62.50
2019-04-07T04:49:56.496Z,58.70
2019-04-07T04:50:56.488Z,55.40
2019-04-07T04:51:57.219Z,55.30
2019-04-07T04:52:56.527Z,61.80
2019-04-07T04:53:56.589Z,57.40
2019-04-07T04:54:57.108Z,52.70
2019-04-07T04:55:56.438Z,57.00
2019-04-07T04:56:56.949Z,54.80
2019-04-07T04:57:58.281Z,59.30
2019-04-07T04:58:56.595Z,62.70
2019-04-07T04:59:56.400Z,60.40
2019-04-07T05:00:56.536Z,60.40
2019-04-07T05:01:56.497Z,59.70
2019-04-07T05:02:57.159Z,57.60
2019-04-07T05:03:56.368Z,52.80
2019-04-07T05:04:57.358Z,56.30
2019-04-07T05:05:56.427Z,60.10
2019-04-07T05:06:57.068Z,59.20
2019-04-07T05:08:02.720Z,53.60
2019-04-07T05:08:56.555Z,55.90
2019-04-07T05:09:56.812Z,53.30
2019-04-07T05:10:56.550Z,60.20
2019-04-07T05:11:56.494Z,55.20
2019-04-07T05:12:56.281Z,54.80
2019-04-07T05:13:56.271Z,58.90
2019-04-07T05:14:56.260Z,57.00
2019-04-07T05:15:56.259Z,56.10
2019-04-07T05:16:56.249Z,58.40
2019-04-07T05:17:56.236Z,62.80
2019-04-07T05:18:56.230Z,50.90
2019-04-07T05:19:56.613Z,54.40
2019-04-07T05:20:56.357Z,56.00
2019-04-07T05:21:56.189Z,53.40
2019-04-07T05:22:56.191Z,52.70
2019-04-07T05:23:56.192Z,52.10
2019-04-07T05:24:56.646Z,50.40
2019-04-07T05:25:56.162Z,51.20
2019-04-07T05:26:56.150Z,56.10
2019-04-07T05:27:56.997Z,51.70
2019-04-07T05:28:56.133Z,54.40
2019-04-07T05:29:56.689Z,49.40
2019-04-07T05:30:56.875Z,48.90
2019-04-07T05:31:56.635Z,46.70
2019-04-07T05:32:57.363Z,43.60
2019-04-07T05:33:56.567Z,45.60
2019-04-07T05:34:56.702Z,48.50
2019-04-07T05:35:56.071Z,46.90
2019-04-07T05:36:56.178Z,55.50
2019-04-07T05:38:02.745Z,44.70
2019-04-07T05:38:56.320Z,45.30
2019-04-07T05:39:56.547Z,42.70
2019-04-07T05:40:56.415Z,42.60
2019-04-07T05:41:56.024Z,42.10
2019-04-07T05:42:56.007Z,42.00
2019-04-07T05:43:55.998Z,44.80
2019-04-07T05:44:56.076Z,43.00
2019-04-07T05:45:56.390Z,41.70
2019-04-07T05:46:56.102Z,43.80
2019-04-07T05:47:55.966Z,41.50
2019-04-07T05:48:56.637Z,41.00
2019-04-07T05:49:58.822Z,39.80
2019-04-07T05:50:58.943Z,38.80
2019-04-07T05:51:56.604Z,40.90
2019-04-07T05:52:56.517Z,33.90
2019-04-07T05:53:55.908Z,35.90
2019-04-07T05:54:56.282Z,40.10
2019-04-07T05:55:56.277Z,38.60
2019-04-07T05:56:58.610Z,37.80
2019-04-07T05:57:55.877Z,36.70
2019-04-07T05:58:55.947Z,36.50
2019-04-07T05:59:55.978Z,34.00
2019-04-07T06:00:56.846Z,37.20
2019-04-07T06:02:00.764Z,34.20
2019-04-07T06:02:56.029Z,36.30
2019-04-07T06:03:56.598Z,36.40
2019-04-07T06:04:58.486Z,36.90
2019-04-07T06:05:56.109Z,33.90
2019-04-07T06:06:56.359Z,34.60
2019-04-07T06:07:55.903Z,34.40
2019-04-07T06:08:55.799Z,35.80
2019-04-07T06:09:55.791Z,32.10
2019-04-07T06:10:59.962Z,32.60
2019-04-07T06:11:55.797Z,33.10
2019-04-07T06:12:56.443Z,31.10
2019-04-07T06:13:56.526Z,32.50
2019-04-07T06:14:56.387Z,35.80
2019-04-07T06:15:56.494Z,31.20
2019-04-07T06:16:55.973Z,33.00
2019-04-07T06:17:59.741Z,30.40
2019-04-07T06:18:55.737Z,33.00
2019-04-07T06:19:55.789Z,30.80
2019-04-07T06:20:56.422Z,34.10
2019-04-07T06:21:55.716Z,33.60
2019-04-07T06:22:56.387Z,31.40
2019-04-07T06:23:59.413Z,30.30
2019-04-07T06:24:56.026Z,32.20
2019-04-07T06:25:57.337Z,35.80
2019-04-07T06:26:56.456Z,33.50
2019-04-07T06:27:55.677Z,32.40
2019-04-07T06:28:58.496Z,31.20
2019-04-07T06:29:58.978Z,31.50
2019-04-07T06:30:59.439Z,33.10
2019-04-07T06:31:56.233Z,31.90
2019-04-07T06:32:55.646Z,32.30
2019-04-07T06:33:55.647Z,34.10
2019-04-07T06:34:55.635Z,33.00
2019-04-07T06:35:56.186Z,32.20
2019-04-07T06:36:56.499Z,33.00
2019-04-07T06:37:57.728Z,31.00
2019-04-07T06:38:55.879Z,33.70
2019-04-07T06:39:57.062Z,34.40
2019-04-07T06:41:00.592Z,33.10
2019-04-07T06:41:58.928Z,31.10
2019-04-07T06:42:56.762Z,34.00
2019-04-07T06:44:08.918Z,32.80
2019-04-07T06:44:56.312Z,37.10
2019-04-07T06:45:56.231Z,33.60
2019-04-07T06:46:57.912Z,35.50
2019-04-07T06:47:56.275Z,36.00
2019-04-07T06:48:56.027Z,31.90
2019-04-07T06:49:55.553Z,32.60
2019-04-07T06:50:58.394Z,32.40
2019-04-07T06:51:55.627Z,34.30
2019-04-07T06:52:55.537Z,30.00
2019-04-07T06:53:55.679Z,28.80
2019-04-07T06:54:56.303Z,27.40
2019-04-07T06:55:59.019Z,28.60
2019-04-07T06:56:55.551Z,34.70
2019-04-07T06:57:55.519Z,28.40
2019-04-07T06:58:55.691Z,30.80
2019-04-07T06:59:55.639Z,29.90
2019-04-07T07:00:56.729Z,30.30
2019-04-07T07:01:58.167Z,33.60
2019-04-07T07:02:55.499Z,36.40
2019-04-07T07:03:55.494Z,29.70
2019-04-07T07:04:56.107Z,31.30
2019-04-07T07:05:56.136Z,33.60
2019-04-07T07:06:55.718Z,32.40
2019-04-07T07:07:56.285Z,28.90
2019-04-07T07:08:57.398Z,30.90
2019-04-07T07:09:59.662Z,33.20
2019-04-07T07:10:55.473Z,33.90
2019-04-07T07:11:56.003Z,30.00
2019-04-07T07:13:00.071Z,35.60
2019-04-07T07:13:55.459Z,34.70
2019-04-07T07:14:56.121Z,33.80
2019-04-07T07:15:55.551Z,30.90
2019-04-07T07:16:55.475Z,31.70
2019-04-07T07:17:58.609Z,31.30
2019-04-07T07:18:56.090Z,34.30
2019-04-07T07:19:57.242Z,32.60
2019-04-07T07:20:59.770Z,28.30
2019-04-07T07:21:55.767Z,29.80
2019-04-07T07:22:55.980Z,31.20
2019-04-07T07:23:55.908Z,30.80
2019-04-07T07:24:59.298Z,29.80
2019-04-07T07:25:55.573Z,28.10
2019-04-07T07:26:57.734Z,30.80
2019-04-07T07:27:55.485Z,30.90
2019-04-07T07:28:56.000Z,33.40
2019-04-07T07:29:56.541Z,32.50
2019-04-07T07:30:55.679Z,31.50
2019-04-07T07:32:01.019Z,30.90
2019-04-07T07:32:55.407Z,32.40
2019-04-07T07:33:56.059Z,33.10
2019-04-07T07:34:55.410Z,30.60
2019-04-07T07:35:55.402Z,31.00
2019-04-07T07:36:57.771Z,32.20
2019-04-07T07:37:58.157Z,34.30
2019-04-07T07:39:00.573Z,33.40
2019-04-07T07:39:55.444Z,30.00
2019-04-07T07:40:55.790Z,34.80
2019-04-07T07:41:56.682Z,29.70
2019-04-07T07:42:58.127Z,34.40
2019-04-07T07:44:00.416Z,30.50
2019-04-07T07:44:58.383Z,30.60
2019-04-07T07:45:59.033Z,30.40
2019-04-07T07:46:55.502Z,30.50
2019-04-07T07:47:55.440Z,33.30
2019-04-07T07:48:58.786Z,31.30
2019-04-07T07:49:55.375Z,31.90
2019-04-07T07:50:55.817Z,31.50
2019-04-07T07:51:55.994Z,32.20
2019-04-07T07:52:56.103Z,29.60
2019-04-07T07:53:58.629Z,28.60
2019-04-07T07:54:55.461Z,32.30
2019-04-07T07:55:55.478Z,30.00
2019-04-07T07:56:55.915Z,33.80
2019-04-07T07:57:58.131Z,28.00
2019-04-07T07:58:55.425Z,28.60
2019-04-07T07:59:55.413Z,28.80
2019-04-07T08:00:55.560Z,29.30
2019-04-07T08:01:55.548Z,30.20
2019-04-07T08:02:55.785Z,31.00
2019-04-07T08:03:56.676Z,31.50
2019-04-07T08:04:58.384Z,31.80
2019-04-07T08:05:55.343Z,28.50
2019-04-07T08:06:55.453Z,28.90
2019-04-07T08:07:55.998Z,26.20
2019-04-07T08:09:07.759Z,28.60
2019-04-07T08:09:56.723Z,31.40
2019-04-07T08:10:58.380Z,29.00
2019-04-07T08:11:55.410Z,27.50
2019-04-07T08:12:56.251Z,31.00
2019-04-07T08:13:55.480Z,27.50
2019-04-07T08:14:57.477Z,30.30
2019-04-07T08:15:57.187Z,26.80
2019-04-07T08:16:55.462Z,26.40
2019-04-07T08:17:55.321Z,25.30
2019-04-07T08:18:58.227Z,28.10
2019-04-07T08:19:55.681Z,28.20
2019-04-07T08:20:55.812Z,29.60
2019-04-07T08:21:55.335Z,26.60
2019-04-07T08:22:56.091Z,27.00
2019-04-07T08:23:55.708Z,26.00
2019-04-07T08:24:55.937Z,28.00
2019-04-07T08:25:57.096Z,27.10
2019-04-07T08:26:57.205Z,27.70
2019-04-07T08:27:56.459Z,26.90
2019-04-07T08:28:55.362Z,24.50
2019-04-07T08:29:56.034Z,27.80
2019-04-07T08:30:55.719Z,29.20
2019-04-07T08:31:55.576Z,29.60
2019-04-07T08:32:57.869Z,24.90
2019-04-07T08:33:55.897Z,27.30
2019-04-07T08:34:55.929Z,26.00
2019-04-07T08:35:56.200Z,25.00
2019-04-07T08:36:55.306Z,25.70
2019-04-07T08:37:55.630Z,28.30
2019-04-07T08:38:57.033Z,29.40
2019-04-07T08:39:57.018Z,30.50
2019-04-07T08:40:55.420Z,30.50
2019-04-07T08:41:56.030Z,27.60
2019-04-07T08:42:56.060Z,32.80
2019-04-07T08:43:57.718Z,30.40
2019-04-07T08:44:57.213Z,29.70
2019-04-07T08:45:55.376Z,27.90
2019-04-07T08:46:57.872Z,29.10
2019-04-07T08:47:55.438Z,28.70
2019-04-07T08:48:55.362Z,33.20
2019-04-07T08:49:57.583Z,27.40
2019-04-07T08:50:57.264Z,27.10
2019-04-07T08:51:56.044Z,27.70
2019-04-07T08:52:55.479Z,28.60
2019-04-07T08:53:55.249Z,32.90
2019-04-07T08:54:55.565Z,27.50
2019-04-07T08:55:55.319Z,29.00
2019-04-07T08:56:56.828Z,28.70
2019-04-07T08:57:55.260Z,28.60
2019-04-07T08:58:55.242Z,26.80
2019-04-07T08:59:55.243Z,26.00
2019-04-07T09:00:55.233Z,25.00
2019-04-07T09:01:55.861Z,24.30
2019-04-07T09:03:03.108Z,26.80
2019-04-07T09:03:55.866Z,28.80
2019-04-07T09:04:55.873Z,27.00
2019-04-07T09:05:57.406Z,27.10
2019-04-07T09:06:59.379Z,28.80
2019-04-07T09:07:55.809Z,31.90
2019-04-07T09:08:55.213Z,25.90
2019-04-07T09:09:55.557Z,25.20
2019-04-07T09:10:56.584Z,26.10
2019-04-07T09:11:57.270Z,24.70
2019-04-07T09:12:56.761Z,25.80
2019-04-07T09:13:55.827Z,23.30
2019-04-07T09:14:55.646Z,21.60
2019-04-07T09:15:55.635Z,25.60
2019-04-07T09:16:57.917Z,21.10
2019-04-07T09:17:55.539Z,21.70
2019-04-07T09:19:01.107Z,20.00
2019-04-07T09:19:55.395Z,20.00
2019-04-07T09:20:55.199Z,20.00
2019-04-07T09:21:55.886Z,20.80
2019-04-07T09:22:57.030Z,21.30
2019-04-07T09:23:56.395Z,19.70
2019-04-07T09:24:55.176Z,19.50
2019-04-07T09:25:55.172Z,16.70
2019-04-07T09:26:55.708Z,19.20
2019-04-07T09:27:55.811Z,18.50
2019-04-07T09:28:55.879Z,19.40
2019-04-07T09:29:55.822Z,18.60
2019-04-07T09:30:55.160Z,18.70
2019-04-07T09:31:55.164Z,19.20
2019-04-07T09:32:55.830Z,23.70
2019-04-07T09:33:55.158Z,19.60
2019-04-07T09:34:56.151Z,21.00
2019-04-07T09:35:58.765Z,19.10
2019-04-07T09:36:55.666Z,19.00
2019-04-07T09:37:55.885Z,17.60
2019-04-07T09:38:59.722Z,19.00
2019-04-07T09:39:59.529Z,18.40
2019-04-07T09:40:55.918Z,18.60
2019-04-07T09:41:55.578Z,20.20
2019-04-07T09:42:59.254Z,17.70
2019-04-07T09:43:55.251Z,18.30
2019-04-07T09:44:55.140Z,21.90
2019-04-07T09:45:55.135Z,15.90
2019-04-07T09:46:55.148Z,19.90
2019-04-07T09:47:55.250Z,18.20
2019-04-07T09:48:55.247Z,18.50
2019-04-07T09:49:56.688Z,19.00
2019-04-07T09:50:58.297Z,15.70
2019-04-07T09:51:55.141Z,16.70
2019-04-07T09:52:55.126Z,16.50
2019-04-07T09:53:55.429Z,16.00
2019-04-07T09:54:55.668Z,17.10
2019-04-07T09:55:56.853Z,15.90
2019-04-07T09:56:56.212Z,17.60
2019-04-07T09:57:55.962Z,18.00
2019-04-07T09:58:55.647Z,15.60
2019-04-07T09:59:55.684Z,14.70
2019-04-07T10:01:02.112Z,14.60
2019-04-07T10:01:59.247Z,15.50
2019-04-07T10:02:55.123Z,14.60
2019-04-07T10:03:55.099Z,15.70
2019-04-07T10:04:56.629Z,13.40
2019-04-07T10:05:55.087Z,13.30
2019-04-07T10:06:55.096Z,16.30
2019-04-07T10:07:55.114Z,15.10
2019-04-07T10:08:55.458Z,16.80
2019-04-07T10:10:07.680Z,15.00
2019-04-07T10:10:55.925Z,15.40
2019-04-07T10:11:55.471Z,16.70
2019-04-07T10:12:55.441Z,15.20
2019-04-07T10:13:55.429Z,17.30
2019-04-07T10:14:55.274Z,16.20
2019-04-07T10:15:55.082Z,16.20
2019-04-07T10:16:55.073Z,17.00
2019-04-07T10:17:55.495Z,18.80
2019-04-07T10:18:55.231Z,14.90
2019-04-07T10:19:55.086Z,15.10
2019-04-07T10:20:55.696Z,13.90
2019-04-07T10:21:55.168Z,16.60
2019-04-07T10:22:55.317Z,15.10
2019-04-07T10:23:55.264Z,14.50
2019-04-07T10:24:55.989Z,14.30
2019-04-07T10:25:55.046Z,14.80
2019-04-07T10:26:55.246Z,17.90
2019-04-07T10:27:55.603Z,14.50
2019-04-07T10:28:55.357Z,12.30
2019-04-07T10:29:55.639Z,16.00
2019-04-07T10:30:55.044Z,12.10
2019-04-07T10:31:55.347Z,13.30
2019-04-07T10:32:55.250Z,16.00
2019-04-07T10:33:55.029Z,13.80
2019-04-07T10:34:55.443Z,13.10
2019-04-07T10:35:55.043Z,17.00
2019-04-07T10:36:55.728Z,13.40
2019-04-07T10:37:55.173Z,11.60
2019-04-07T10:39:57.361Z,11.10
2019-04-07T10:40:55.561Z,11.10
2019-04-07T10:41:58.892Z,11.40
2019-04-07T10:42:57.220Z,9.90
2019-04-07T10:43:55.732Z,10.40
2019-04-07T10:44:55.034Z,10.30
2019-04-07T10:45:55.263Z,13.90
2019-04-07T10:46:55.007Z,11.30
2019-04-07T10:47:55.201Z,9.30
2019-04-07T10:48:55.753Z,8.30
2019-04-07T10:50:00.676Z,10.00
2019-04-07T10:50:55.554Z,9.90
2019-04-07T10:51:55.043Z,10.60
2019-04-07T10:52:56.182Z,8.20
2019-04-07T10:53:55.017Z,8.40
2019-04-07T10:54:55.019Z,7.10
2019-04-07T10:55:55.071Z,7.60
2019-04-07T10:56:55.230Z,6.50
2019-04-07T10:57:54.987Z,7.70
2019-04-07T10:58:56.625Z,8.70
2019-04-07T10:59:55.593Z,8.30
2019-04-07T11:00:55.006Z,9.50
2019-04-07T11:01:55.191Z,7.10
2019-04-07T11:02:56.937Z,9.40
2019-04-07T11:03:56.422Z,8.60
2019-04-07T11:04:55.228Z,6.40
2019-04-07T11:05:55.008Z,8.30
2019-04-07T11:06:54.986Z,5.40
2019-04-07T11:07:55.809Z,6.90
2019-04-07T11:08:55.463Z,8.60
2019-04-07T11:09:54.994Z,6.80
2019-04-07T11:10:55.538Z,8.30
2019-04-07T11:11:54.989Z,7.40
2019-04-07T11:12:54.964Z,7.10
2019-04-07T11:13:55.469Z,7.40
2019-04-07T11:14:55.866Z,6.80
2019-04-07T11:15:55.219Z,6.60
2019-04-07T11:16:55.000Z,8.10
2019-04-07T11:17:54.971Z,7.50
2019-04-07T11:18:55.036Z,7.50
2019-04-07T11:19:54.962Z,8.20
2019-04-07T11:20:55.707Z,9.20
2019-04-07T11:21:55.571Z,7.80
2019-04-07T11:22:54.954Z,5.70
2019-04-07T11:23:54.949Z,6.70
2019-04-07T11:24:55.733Z,6.70
2019-04-07T11:25:54.957Z,5.50
2019-04-07T11:26:55.068Z,6.20
2019-04-07T11:27:55.061Z,5.80
2019-04-07T11:28:55.593Z,5.00
2019-04-07T11:29:55.007Z,5.60
2019-04-07T11:30:54.935Z,6.80
2019-04-07T11:31:54.985Z,5.60
2019-04-07T11:32:54.957Z,5.40
2019-04-07T11:33:55.522Z,5.10
2019-04-07T11:34:54.973Z,6.20
2019-04-07T11:35:54.937Z,4.10
2019-04-07T11:36:54.932Z,5.50
2019-04-07T11:37:54.928Z,5.90
2019-04-07T11:38:54.946Z,8.20
2019-04-07T11:39:54.928Z,4.40
2019-04-07T11:40:54.958Z,6.10
2019-04-07T11:41:55.719Z,5.50
2019-04-07T11:42:55.586Z,4.70
2019-04-07T11:43:54.922Z,6.00
2019-04-07T11:44:54.925Z,5.00
2019-04-07T11:46:00.105Z,6.70
2019-04-07T11:46:54.913Z,5.40
2019-04-07T11:47:54.980Z,5.20
2019-04-07T11:48:55.934Z,4.70
2019-04-07T11:49:55.177Z,5.50
2019-04-07T11:50:54.922Z,4.40
2019-04-07T11:51:55.551Z,6.10
2019-04-07T11:52:55.113Z,6.70
2019-04-07T11:53:54.940Z,4.40
2019-04-07T11:54:55.398Z,5.20
2019-04-07T11:55:54.904Z,5.70
2019-04-07T11:56:55.614Z,5.10
2019-04-07T11:58:06.394Z,4.50
2019-04-07T11:58:55.264Z,4.90
2019-04-07T11:59:55.852Z,4.40
2019-04-07T12:02:19.832Z,4.60
2019-04-07T12:02:55.603Z,5.90
2019-04-07T12:03:55.790Z,5.10
2019-04-07T12:04:55.364Z,5.60
2019-04-07T12:05:55.155Z,4.80
2019-04-07T12:06:56.357Z,4.80
2019-04-07T12:07:58.335Z,5.30
2019-04-07T12:08:55.652Z,5.10
2019-04-07T12:09:56.320Z,4.50
2019-04-07T12:11:01.711Z,4.20
2019-04-07T12:11:54.988Z,4.40
2019-04-07T12:12:54.955Z,4.80
2019-04-07T12:13:54.890Z,3.90
2019-04-07T12:14:54.884Z,5.00
2019-04-07T12:15:56.055Z,5.40
2019-04-07T12:16:57.932Z,4.80
2019-04-07T12:17:55.614Z,5.30
2019-04-07T12:18:55.546Z,6.50
2019-04-07T12:19:56.785Z,4.70
2019-04-07T12:20:54.874Z,4.90
2019-04-07T12:21:55.899Z,4.90
2019-04-07T12:22:54.979Z,5.00
2019-04-07T12:23:55.338Z,7.00
2019-04-07T12:24:59.240Z,4.30
2019-04-07T12:25:55.709Z,4.60
2019-04-07T12:26:54.986Z,5.90
2019-04-07T12:27:54.914Z,4.60
2019-04-07T12:28:54.862Z,4.20
2019-04-07T12:29:54.857Z,5.00
2019-04-07T12:30:54.843Z,5.40
2019-04-07T12:31:54.851Z,4.60
2019-04-07T12:32:55.176Z,3.90
2019-04-07T12:33:54.939Z,4.90
2019-04-07T12:34:54.842Z,4.30
2019-04-07T12:35:56.232Z,4.50
2019-04-07T12:36:54.857Z,4.40
2019-04-07T12:37:57.898Z,6.10
2019-04-07T12:38:55.291Z,4.90
2019-04-07T12:39:55.507Z,3.90
2019-04-07T12:41:09.837Z,4.50
2019-04-07T12:41:57.237Z,6.10
2019-04-07T12:42:54.839Z,4.60
2019-04-07T12:43:55.173Z,5.60
2019-04-07T12:44:55.523Z,4.70
2019-04-07T12:45:54.895Z,4.70
2019-04-07T12:46:55.646Z,3.70
2019-04-07T12:47:54.825Z,6.60
2019-04-07T12:48:55.400Z,4.80
2019-04-07T12:49:55.196Z,4.80
2019-04-07T12:50:55.270Z,6.00
2019-04-07T12:51:56.067Z,4.80
2019-04-07T12:52:54.814Z,4.10
2019-04-07T12:53:54.818Z,5.50
2019-04-07T12:54:54.811Z,4.90
2019-04-07T12:55:59.095Z,4.90
2019-04-07T12:56:57.625Z,4.10
2019-04-07T12:57:55.479Z,8.80
2019-04-07T12:58:54.811Z,5.70